Time;durP1;ratioP1;P1;durP2;ratioP2;P2;SDS_P1;SDS_P2;PMS_P1;PMS_P2;Temp;Humidity;BMP_temperature;BMP_pressure;BME280_temperature;BME280_humidity;BME280_pressure;Samples;Min_cycle;Max_cycle;Signal;HPM_P1;HPM_P2
2022/03/31 00:00:43;;;;;;;;;10.75;9.75;;;;;16.67;37.11;96787.78;4896184;28;106618;-87
2022/03/31 00:03:12;;;;;;;;;9.00;9.00;;;;;16.66;37.13;96795.13;4887584;28;108494;-87
2022/03/31 00:05:39;;;;;;;;;8.25;8.25;;;;;16.64;37.53;96800.09;4871910;28;101726;-87
2022/03/31 00:08:09;;;;;;;;;9.00;8.50;;;;;16.63;37.23;96793.00;4851924;28;102061;-87
2022/03/31 00:10:38;;;;;;;;;8.25;8.25;;;;;16.64;37.40;96794.63;4874746;28;102051;-87
2022/03/31 00:13:13;;;;;;;;;9.75;8.50;;;;;16.63;36.64;96787.53;4880644;28;103621;-87
2022/03/31 00:15:40;;;;;;;;;7.00;7.00;;;;;16.62;36.68;96785.88;4888159;28;102826;-87
2022/03/31 00:18:08;;;;;;;;;9.50;8.75;;;;;16.62;37.36;96796.81;4880442;28;103159;-91
2022/03/31 00:20:36;;;;;;;;;8.00;7.50;;;;;16.60;36.66;96790.84;4864140;28;102188;-90
2022/03/31 00:23:05;;;;;;;;;10.50;9.25;;;;;16.60;36.66;96788.09;4892912;28;103415;-91
2022/03/31 00:25:32;;;;;;;;;9.25;6.75;;;;;16.59;37.54;96786.47;4892386;28;102013;-90
2022/03/31 00:28:03;;;;;;;;;9.00;8.75;;;;;16.58;36.99;96787.56;4891376;28;101886;-90
2022/03/31 00:30:31;;;;;;;;;8.00;8.00;;;;;16.58;37.16;96784.00;4880342;28;102939;-90
2022/03/31 00:33:02;;;;;;;;;8.00;7.25;;;;;16.57;36.86;96776.91;4893572;28;103762;-90
2022/03/31 00:35:30;;;;;;;;;8.50;7.75;;;;;16.58;37.10;96778.56;4905813;28;101856;-91
2022/03/31 00:37:57;;;;;;;;;8.00;7.00;;;;;16.55;37.33;96771.75;4896583;28;102347;-91
2022/03/31 00:40:24;;;;;;;;;6.75;6.75;;;;;16.56;36.64;96765.19;4884387;28;102002;-90
2022/03/31 00:42:54;;;;;;;;;9.00;8.50;;;;;16.53;36.73;96761.09;4895532;28;103578;-90
2022/03/31 00:45:23;;;;;;;;;7.00;5.00;;;;;16.54;37.11;96764.63;4866855;28;103950;-90
2022/03/31 00:47:51;;;;;;;;;8.50;7.75;;;;;16.52;36.99;96764.91;4896746;28;103647;-91
2022/03/31 00:50:18;;;;;;;;;6.50;6.50;;;;;16.53;37.29;96771.19;4886733;28;101815;-90
2022/03/31 00:52:45;;;;;;;;;6.75;6.75;;;;;16.51;37.37;96781.59;4886808;28;103686;-89
2022/03/31 00:55:14;;;;;;;;;7.25;7.00;;;;;16.50;36.60;96780.78;4890807;28;102676;-90
2022/03/31 00:57:43;;;;;;;;;6.25;6.00;;;;;16.49;36.78;96792.78;4893264;28;102222;-91
2022/03/31 01:00:10;;;;;;;;;7.75;7.75;;;;;16.49;36.78;96781.03;4898207;28;102338;-90
2022/03/31 01:02:38;;;;;;;;;8.00;6.25;;;;;16.48;36.93;96782.94;4898013;28;103820;-91
2022/03/31 01:05:06;;;;;;;;;8.75;6.75;;;;;16.48;37.03;96782.94;4853070;28;102602;-90
2022/03/31 01:07:37;;;;;;;;;7.00;7.00;;;;;16.48;36.51;96779.41;4873014;28;103892;-90
2022/03/31 01:10:05;;;;;;;;;9.50;6.75;;;;;16.48;36.61;96776.69;4830060;28;102451;-90
2022/03/31 01:12:33;;;;;;;;;7.00;7.00;;;;;16.49;37.21;96781.88;4884399;28;103533;-90
2022/03/31 01:15:07;;;;;;;;;5.50;5.50;;;;;16.48;37.17;96784.88;4908392;28;103751;-90
2022/03/31 01:17:38;;;;;;;;;7.00;6.00;;;;;16.47;36.96;96777.81;4901355;28;102282;-90
2022/03/31 01:20:07;;;;;;;;;7.00;5.75;;;;;16.45;36.59;96774.53;4906504;28;103624;-90
2022/03/31 01:22:34;;;;;;;;;5.50;5.50;;;;;16.45;36.60;96779.97;4903670;28;103376;-90
2022/03/31 01:25:02;;;;;;;;;5.00;5.00;;;;;16.43;37.03;96769.38;4899211;28;101776;-91
2022/03/31 01:27:29;;;;;;;;;7.25;5.25;;;;;16.43;37.20;96776.75;4882478;28;102161;-90
2022/03/31 01:29:57;;;;;;;;;5.50;5.25;;;;;16.42;36.73;96775.91;4882547;28;102005;-90
2022/03/31 01:32:24;;;;;;;;;6.75;5.75;;;;;16.42;36.59;96775.09;4903184;28;103559;-91
2022/03/31 01:34:51;;;;;;;;;6.00;5.00;;;;;16.42;37.18;96783.28;4902187;28;102088;-90
2022/03/31 01:37:18;;;;;;;;;7.00;5.50;;;;;16.41;37.17;96784.38;4903789;28;101951;-91
2022/03/31 01:39:45;;;;;;;;;5.75;4.75;;;;;16.39;37.22;96783.84;4909329;28;101810;-90
2022/03/31 01:42:12;;;;;;;;;5.50;5.50;;;;;16.39;36.86;96781.13;4891861;28;103784;-90
2022/03/31 01:44:39;;;;;;;;;5.75;5.00;;;;;16.40;36.85;96791.75;4892486;28;102280;-91
2022/03/31 01:47:07;;;;;;;;;7.00;7.00;;;;;16.39;36.73;96787.38;4890326;28;102198;-90
2022/03/31 01:49:38;;;;;;;;;6.25;6.25;;;;;16.40;36.91;96789.00;4899286;28;102092;-90
2022/03/31 01:52:06;;;;;;;;;5.00;5.00;;;;;16.40;36.70;96788.19;4894867;28;103852;-90
2022/03/31 01:54:34;;;;;;;;;6.00;5.50;;;;;16.37;36.92;96788.78;4896414;28;102278;-90
2022/03/31 01:57:01;;;;;;;;;6.25;6.00;;;;;16.38;37.23;96790.41;4899888;28;103334;-90
2022/03/31 01:59:36;;;;;;;;;5.50;5.25;;;;;16.39;36.64;96792.03;4895003;28;102293;-90
2022/03/31 02:02:03;;;;;;;;;5.75;5.00;;;;;16.37;36.40;96791.50;4902921;28;103715;-91
2022/03/31 02:04:36;;;;;;;;;5.00;5.00;;;;;16.37;36.40;96797.78;4886088;28;102532;-91
2022/03/31 02:07:03;;;;;;;;;4.25;4.25;;;;;16.37;37.11;96799.69;4898406;28;102116;-90
2022/03/31 02:09:30;;;;;;;;;4.00;4.00;;;;;16.36;37.05;96798.03;4900730;28;102234;-90
2022/03/31 02:11:58;;;;;;;;;4.50;4.50;;;;;16.34;36.65;96802.97;4905163;28;103381;-91
2022/03/31 02:14:25;;;;;;;;;5.00;5.00;;;;;16.33;36.92;96801.34;4882352;28;102129;-90
2022/03/31 02:16:52;;;;;;;;;4.00;4.00;;;;;16.33;36.58;96809.53;4886963;28;102119;-90
2022/03/31 02:19:19;;;;;;;;;4.00;4.00;;;;;16.32;36.95;96811.44;4891084;28;101894;-91
2022/03/31 02:21:46;;;;;;;;;6.00;5.00;;;;;16.33;36.41;96809.53;4890719;28;108403;-90
2022/03/31 02:24:14;;;;;;;;;5.00;4.00;;;;;16.33;36.23;96812.25;4890001;28;102295;-90
2022/03/31 02:26:42;;;;;;;;;5.33;4.67;;;;;16.34;37.10;96811.16;4895629;28;102716;-91
2022/03/31 02:29:09;;;;;;;;;5.75;5.00;;;;;16.33;36.51;96806.81;4894136;28;102577;-91
2022/03/31 02:31:36;;;;;;;;;3.75;3.00;;;;;16.32;36.36;96797.78;4895818;28;111346;-90
2022/03/31 02:34:03;;;;;;;;;3.00;3.00;;;;;16.33;36.54;96798.63;4897775;28;101849;-91
2022/03/31 02:36:31;;;;;;;;;3.25;3.00;;;;;16.32;36.98;96796.97;4904278;28;103103;-91
2022/03/31 02:38:58;;;;;;;;;4.25;4.25;;;;;16.31;37.04;96803.53;4905236;28;102176;-90
2022/03/31 02:41:25;;;;;;;;;4.00;4.00;;;;;16.30;36.79;96801.91;4894818;28;103359;-90
2022/03/31 02:43:55;;;;;;;;;4.00;3.75;;;;;16.29;36.35;96803.00;4894896;28;102187;-90
2022/03/31 02:46:22;;;;;;;;;3.00;3.00;;;;;16.29;36.19;96803.00;4893929;28;101676;-90
2022/03/31 02:48:53;;;;;;;;;5.00;4.25;;;;;16.28;36.87;96798.63;4896814;28;104314;-91
2022/03/31 02:51:24;;;;;;;;;3.00;3.00;;;;;16.27;36.88;96810.63;4899231;28;102680;-90
2022/03/31 02:56:38;;;;;;;;;4.25;2.50;;;;;16.25;36.42;96810.94;4897744;28;102129;-91
2022/03/31 02:59:07;;;;;;;;;3.00;3.00;;;;;16.26;36.48;96809.00;4908088;28;102175;-91
2022/03/31 03:01:34;;;;;;;;;4.00;3.75;;;;;16.25;36.59;96810.13;4892923;28;103457;-91
2022/03/31 03:04:07;;;;;;;;;3.00;3.00;;;;;16.25;37.10;96808.22;4876597;28;101881;-91
2022/03/31 03:06:35;;;;;;;;;3.25;3.25;;;;;16.26;36.52;96814.47;4889524;28;102416;-91
2022/03/31 03:09:03;;;;;;;;;3.00;3.00;;;;;16.25;36.82;96812.84;4897976;28;101831;-91
2022/03/31 03:11:30;;;;;;;;;4.00;3.00;;;;;16.26;36.83;96817.19;4894639;28;104072;-90
2022/03/31 03:14:18;;;;;;;;;3.25;3.00;;;;;16.25;36.47;96815.56;4895151;28;102321;-91
2022/03/31 03:16:48;;;;;;;;;3.75;2.50;;;;;16.24;36.93;96814.75;4867875;28;102104;-91
2022/03/31 03:19:15;;;;;;;;;2.00;2.00;;;;;16.23;36.28;96821.31;4897682;28;102145;-91
2022/03/31 03:21:42;;;;;;;;;3.00;3.00;;;;;16.23;36.68;96815.03;4895052;28;103635;-91
2022/03/31 03:24:10;;;;;;;;;2.75;2.75;;;;;16.21;36.83;96811.78;4897405;28;101791;-91
2022/03/31 03:26:37;;;;;;;;;3.00;2.75;;;;;16.21;36.62;96822.69;4889087;28;103255;-91
2022/03/31 03:29:04;;;;;;;;;3.00;3.00;;;;;16.19;36.41;96825.69;4895523;28;102182;-91
2022/03/31 03:31:31;;;;;;;;;2.75;2.75;;;;;16.20;36.71;96818.31;4890687;28;103658;-91
2022/03/31 03:33:58;;;;;;;;;2.00;2.00;;;;;16.18;36.14;96829.50;4901356;28;101881;-91
2022/03/31 03:36:27;;;;;;;;;2.75;2.50;;;;;16.18;36.54;96834.97;4889121;28;101972;-91
2022/03/31 03:38:54;;;;;;;;;2.00;2.00;;;;;16.19;36.61;96833.03;4891895;28;102004;-91
2022/03/31 03:41:21;;;;;;;;;3.25;3.00;;;;;16.18;36.83;96829.50;4889453;28;103515;-90
2022/03/31 03:43:48;;;;;;;;;2.00;2.00;;;;;16.18;36.42;96828.69;4890033;28;101993;-90
2022/03/31 03:46:15;;;;;;;;;2.00;2.00;;;;;16.19;36.61;96833.03;4889428;28;102077;-91
2022/03/31 03:48:42;;;;;;;;;3.00;2.00;;;;;16.19;36.53;96830.31;4894919;28;103705;-91
2022/03/31 03:51:10;;;;;;;;;2.25;2.00;;;;;16.18;36.62;96831.41;4900052;28;104827;-91
2022/03/31 03:53:37;;;;;;;;;3.00;3.00;;;;;16.18;36.53;96831.41;4893567;28;104776;-90
2022/03/31 03:56:05;;;;;;;;;2.00;2.00;;;;;16.18;36.42;96831.41;4884626;28;102099;-91
2022/03/31 03:58:32;;;;;;;;;2.75;2.00;;;;;16.18;36.00;96825.94;4900764;28;103596;-90
2022/03/31 04:01:00;;;;;;;;;3.25;3.25;;;;;16.17;36.46;96821.59;4887017;28;103908;-91
2022/03/31 04:03:30;;;;;;;;;2.50;2.50;;;;;16.16;36.62;96817.25;4885120;28;102071;-90
2022/03/31 04:05:57;;;;;;;;;2.25;2.25;;;;;16.13;36.48;96825.97;4884650;28;104140;-90
2022/03/31 04:08:24;;;;;;;;;1.75;1.75;;;;;16.14;36.18;96833.06;4889822;28;102032;-90
2022/03/31 04:10:51;;;;;;;;;2.50;2.50;;;;;16.13;36.04;96842.34;4884426;28;103243;-91
2022/03/31 04:13:18;;;;;;;;;2.25;2.00;;;;;16.11;36.68;96845.38;4897077;28;101783;-90
2022/03/31 04:15:45;;;;;;;;;2.00;1.00;;;;;16.11;36.14;96844.53;4900798;28;102900;-90
2022/03/31 04:18:12;;;;;;;;;3.00;3.00;;;;;16.11;36.59;96839.91;4900615;28;101986;-90
2022/03/31 04:20:39;;;;;;;;;2.75;2.00;;;;;16.08;36.36;96830.34;4900710;28;103873;-91
2022/03/31 04:23:06;;;;;;;;;2.00;1.00;;;;;16.11;36.10;96836.38;4906400;28;101817;-91
2022/03/31 04:25:33;;;;;;;;;2.50;2.50;;;;;16.10;36.07;96832.81;4903562;28;102117;-83
2022/03/31 04:28:00;;;;;;;;;1.00;1.00;;;;;16.07;36.67;96839.63;4904288;28;104057;-89
2022/03/31 04:30:27;;;;;;;;;2.00;2.00;;;;;16.08;36.96;96840.44;4893318;28;103647;-89
2022/03/31 04:32:54;;;;;;;;;1.00;1.00;;;;;16.09;36.58;96842.09;4895248;28;101747;-89
2022/03/31 04:35:21;;;;;;;;;1.00;1.00;;;;;16.08;36.69;96844.00;4902600;28;102268;-90
2022/03/31 04:37:48;;;;;;;;;2.25;2.25;;;;;16.09;36.61;96839.34;4892483;28;101904;-90
2022/03/31 04:40:15;;;;;;;;;2.75;1.75;;;;;16.06;36.44;96838.03;4902781;28;103697;-90
2022/03/31 04:42:42;;;;;;;;;2.00;2.00;;;;;16.05;36.40;96839.09;4900368;28;102874;-90
2022/03/31 04:45:10;;;;;;;;;1.00;1.00;;;;;16.07;36.27;96839.63;4892213;28;102148;-90
2022/03/31 04:47:37;;;;;;;;;1.00;1.00;;;;;16.06;36.53;96846.19;4906711;28;102053;-90
2022/03/31 04:50:10;;;;;;;;;2.00;2.00;;;;;16.05;36.05;96852.75;4895424;28;104267;-90
2022/03/31 04:52:37;;;;;;;;;1.00;1.00;;;;;16.04;35.98;96851.09;4886456;28;102431;-89
2022/03/31 04:55:04;;;;;;;;;1.00;1.00;;;;;16.05;36.40;96851.91;4891307;28;102990;-89
2022/03/31 04:57:31;;;;;;;;;1.00;1.00;;;;;16.04;36.21;96851.09;4898247;28;101886;-89
2022/03/31 04:59:58;;;;;;;;;1.50;1.00;;;;;16.04;36.34;96844.81;4889302;28;103460;-90
2022/03/31 05:02:25;;;;;;;;;0.75;0.00;;;;;16.04;36.43;96855.72;4901506;28;101957;-89
2022/03/31 05:04:52;;;;;;;;;1.00;0.25;;;;;16.03;36.24;96849.47;4894084;28;103652;-90
2022/03/31 05:07:19;;;;;;;;;2.00;2.00;;;;;16.05;36.25;96832.84;4887058;28;102250;-90
2022/03/31 05:09:46;;;;;;;;;0.25;0.00;;;;;16.04;36.35;96853.81;4889745;28;103872;-89
2022/03/31 05:12:13;;;;;;;;;2.00;1.00;;;;;16.04;36.14;96853.00;4886553;28;103708;-90
2022/03/31 05:14:41;;;;;;;;;2.00;1.25;;;;;16.03;36.40;96845.91;4904030;28;103467;-90
2022/03/31 05:17:08;;;;;;;;;0.75;0.75;;;;;16.01;36.23;96843.50;4885577;28;101904;-90
2022/03/31 05:19:35;;;;;;;;;1.00;1.00;;;;;16.03;36.03;96854.09;4910799;28;103676;-90
2022/03/31 05:22:02;;;;;;;;;1.50;1.00;;;;;16.02;36.16;96853.31;4906401;28;101872;-90
2022/03/31 05:24:29;;;;;;;;;1.00;1.00;;;;;16.01;36.20;96857.13;4903943;28;101792;-90
2022/03/31 05:26:56;;;;;;;;;0.50;0.50;;;;;16.00;35.90;96860.94;4917832;28;103030;-90
2022/03/31 05:29:23;;;;;;;;;0.75;0.75;;;;;16.00;36.52;96860.09;4897272;28;103416;-90
2022/03/31 05:31:51;;;;;;;;;1.00;1.00;;;;;15.98;36.12;96860.41;4906277;28;101833;-89
2022/03/31 05:34:19;;;;;;;;;2.00;1.00;;;;;15.99;36.36;96866.66;4915810;28;102386;-90
2022/03/31 05:36:46;;;;;;;;;2.00;1.00;;;;;15.99;36.36;96872.91;4908395;28;102314;-90
2022/03/31 05:39:13;;;;;;;;;1.00;1.00;;;;;15.99;36.24;96885.72;4881969;28;103368;-89
2022/03/31 05:41:40;;;;;;;;;1.75;1.50;;;;;15.99;36.34;96880.28;4910591;28;102012;-89
2022/03/31 05:44:07;;;;;;;;;2.25;1.00;;;;;15.99;36.17;96892.00;4888520;28;102119;-90
2022/03/31 05:46:34;;;;;;;;;1.00;1.00;;;;;15.99;36.31;96897.47;4909015;28;103849;-90
2022/03/31 05:49:02;;;;;;;;;2.00;1.00;;;;;15.99;35.76;96881.09;4895440;28;103445;-90
2022/03/31 05:51:29;;;;;;;;;0.75;0.75;;;;;15.98;36.24;96882.22;4903940;28;102409;-90
2022/03/31 05:53:56;;;;;;;;;0.00;0.00;;;;;15.98;36.00;96882.22;4904503;28;102635;-89
2022/03/31 05:56:23;;;;;;;;;1.00;1.00;;;;;15.97;35.96;96886.03;4920375;28;102292;-89
2022/03/31 05:58:50;;;;;;;;;1.00;1.00;;;;;15.97;36.22;96888.75;4906436;28;103564;-89
2022/03/31 06:01:19;;;;;;;;;1.00;1.00;;;;;15.96;35.95;96887.13;4895705;28;105309;-90
2022/03/31 06:03:46;;;;;;;;;0.25;0.25;;;;;15.97;36.41;96894.22;4899082;28;101615;-90
2022/03/31 06:06:14;;;;;;;;;1.00;1.00;;;;;15.94;36.00;96889.28;4904441;28;102120;-90
2022/03/31 06:08:41;;;;;;;;;0.75;0.75;;;;;15.94;36.48;96889.28;4902134;28;104716;-90
2022/03/31 06:11:07;;;;;;;;;1.00;1.00;;;;;15.94;36.34;96891.22;4898350;28;101848;-90
2022/03/31 06:13:35;;;;;;;;;1.00;1.00;;;;;15.94;35.94;96883.06;4902722;28;102017;-90
2022/03/31 06:16:03;;;;;;;;;1.00;1.00;;;;;15.94;36.29;96889.28;4911429;28;102066;-89
2022/03/31 06:18:33;;;;;;;;;0.75;0.75;;;;;15.93;36.26;96886.88;4884149;28;103281;-90
2022/03/31 06:21:01;;;;;;;;;1.25;1.00;;;;;15.94;36.16;96894.75;4895547;28;102349;-89
2022/03/31 06:23:28;;;;;;;;;0.50;0.50;;;;;15.94;36.27;96897.47;4857037;28;101836;-90
2022/03/31 06:25:55;;;;;;;;;1.00;1.00;;;;;15.96;36.01;96892.56;4876761;28;102010;-90
2022/03/31 06:28:24;;;;;;;;;1.00;1.00;;;;;15.96;36.21;96908.09;4866879;28;108054;-90
2022/03/31 06:30:51;;;;;;;;;1.00;1.00;;;;;15.95;36.49;96907.28;4848920;28;102228;-90
2022/03/31 06:33:18;;;;;;;;;0.75;0.75;;;;;15.96;35.58;96914.38;4850565;28;101980;-90
2022/03/31 06:35:45;;;;;;;;;1.00;1.00;;;;;15.95;36.01;96907.28;4852086;28;101806;-90
2022/03/31 06:38:12;;;;;;;;;0.25;0.25;;;;;15.94;36.32;96911.09;4857149;28;103137;-90
2022/03/31 06:40:41;;;;;;;;;1.00;1.00;;;;;15.95;36.18;96912.75;4869492;28;102106;-90
2022/03/31 06:43:08;;;;;;;;;1.00;1.00;;;;;15.94;36.16;96915.75;4858944;28;101683;-90
2022/03/31 06:45:36;;;;;;;;;1.00;1.00;;;;;15.92;36.49;96915.22;4852219;28;102174;-90
2022/03/31 06:48:04;;;;;;;;;0.50;0.50;;;;;15.92;36.13;96910.56;4862629;28;103499;-90
2022/03/31 06:50:32;;;;;;;;;1.00;1.00;;;;;15.91;36.39;96902.66;4848691;28;101795;-90
2022/03/31 06:53:00;;;;;;;;;1.75;1.75;;;;;15.90;35.99;96918.19;4848806;28;101631;-90
2022/03/31 06:55:27;;;;;;;;;1.00;1.00;;;;;15.91;35.69;96913.56;4861582;28;103919;-89
2022/03/31 06:57:54;;;;;;;;;1.00;1.00;;;;;15.89;36.22;96908.41;4870630;28;108101;-89
2022/03/31 07:00:21;;;;;;;;;2.00;1.25;;;;;15.91;36.12;96916.28;4870597;28;102210;-90
2022/03/31 07:02:48;;;;;;;;;0.75;0.75;;;;;15.91;36.35;96916.28;4859589;28;101931;-90
2022/03/31 07:05:15;;;;;;;;;2.75;1.00;;;;;15.91;36.15;96900.75;4872197;28;102280;-90
2022/03/31 07:07:43;;;;;;;;;1.00;1.00;;;;;15.91;36.16;96905.38;4856315;28;104580;-90
2022/03/31 07:10:10;;;;;;;;;1.00;1.00;;;;;15.90;35.99;96907.28;4870323;28;102064;-90
2022/03/31 07:12:40;;;;;;;;;1.75;1.00;;;;;15.91;36.15;96899.94;4857505;28;101823;-90
2022/03/31 07:15:08;;;;;;;;;2.00;1.00;;;;;15.91;36.24;96905.38;4873582;28;104792;-90
2022/03/31 07:17:35;;;;;;;;;1.00;1.00;;;;;15.89;35.99;96904.88;4878251;28;103453;-90
2022/03/31 07:20:03;;;;;;;;;1.00;1.00;;;;;15.90;36.02;96901.84;4869904;28;102224;-90
2022/03/31 07:22:30;;;;;;;;;1.00;1.00;;;;;15.89;36.26;96911.13;4898475;28;102299;-89
2022/03/31 07:24:57;;;;;;;;;1.75;1.00;;;;;15.88;35.99;96909.50;4909231;28;108907;-90
2022/03/31 07:27:25;;;;;;;;;3.00;1.00;;;;;15.88;35.85;96912.22;4891027;28;108276;-90
2022/03/31 07:29:51;;;;;;;;;2.00;1.00;;;;;15.88;36.05;96909.50;4883560;28;101772;-90
2022/03/31 07:32:19;;;;;;;;;1.00;1.00;;;;;15.85;35.94;96907.31;4900322;28;101976;-90
2022/03/31 07:34:45;;;;;;;;;0.75;0.75;;;;;15.87;35.83;96917.94;4895569;28;102017;-90
2022/03/31 07:37:13;;;;;;;;;1.25;1.25;;;;;15.86;36.26;96914.41;4889624;28;103472;-90
2022/03/31 07:39:45;;;;;;;;;2.00;1.25;;;;;15.88;36.00;96908.69;4907500;28;102099;-90
2022/03/31 07:42:13;;;;;;;;;1.00;1.00;;;;;15.86;36.21;96908.94;4907454;28;101753;-90
2022/03/31 07:44:40;;;;;;;;;0.75;0.75;;;;;15.89;36.23;96905.69;4898125;28;102239;-90
2022/03/31 07:47:08;;;;;;;;;1.00;1.00;;;;;15.88;36.12;96906.78;4902790;28;103389;-90
2022/03/31 07:49:35;;;;;;;;;1.00;1.00;;;;;15.89;36.49;96910.31;4894512;28;102785;-90
2022/03/31 07:52:02;;;;;;;;;0.00;0.00;;;;;15.89;36.17;96907.59;4914654;28;102161;-90
2022/03/31 07:54:29;;;;;;;;;0.75;0.75;;;;;15.89;36.06;96905.69;4894571;28;102273;-89
2022/03/31 07:56:56;;;;;;;;;0.25;0.25;;;;;15.88;36.14;96917.69;4902688;28;103401;-90
2022/03/31 07:59:27;;;;;;;;;1.50;1.00;;;;;15.88;36.18;96912.22;4904705;28;101926;-90
2022/03/31 08:01:54;;;;;;;;;1.00;1.00;;;;;15.88;36.28;96923.13;4914288;28;102314;-90
2022/03/31 08:04:22;;;;;;;;;1.00;1.00;;;;;15.88;36.28;96919.59;4918833;28;102240;-90
2022/03/31 08:06:50;;;;;;;;;1.00;1.00;;;;;15.88;36.14;96919.59;4916129;28;103397;-90
2022/03/31 08:09:20;;;;;;;;;1.00;1.00;;;;;15.88;36.02;96917.69;4922687;28;102032;-90
2022/03/31 08:11:51;;;;;;;;;1.00;1.00;;;;;15.87;36.09;96920.66;4906966;28;102844;-90
2022/03/31 08:14:19;;;;;;;;;1.50;1.00;;;;;15.86;36.01;96922.56;4912755;28;104234;-90
2022/03/31 08:16:50;;;;;;;;;2.75;1.50;;;;;15.86;35.66;96928.03;4899477;28;103338;-90
2022/03/31 08:19:18;;;;;;;;;1.00;1.00;;;;;15.87;36.15;96926.94;4903623;28;101848;-90
2022/03/31 08:21:46;;;;;;;;;2.25;1.50;;;;;15.88;35.91;96933.22;4881703;28;101987;-90
2022/03/31 08:24:13;;;;;;;;;1.00;1.00;;;;;15.87;35.91;96932.38;4905120;28;103247;-90
2022/03/31 08:26:40;;;;;;;;;1.00;1.00;;;;;15.88;36.24;96933.22;4893906;28;103395;-90
2022/03/31 08:29:08;;;;;;;;;1.00;1.00;;;;;15.87;36.16;96932.38;4907831;28;101953;-90
2022/03/31 08:31:35;;;;;;;;;1.75;1.00;;;;;15.89;36.44;96937.56;4884539;28;101907;-90
2022/03/31 08:34:03;;;;;;;;;2.00;1.00;;;;;15.87;35.78;96937.84;4909309;28;101988;-90
2022/03/31 08:36:30;;;;;;;;;1.00;1.00;;;;;15.87;36.54;96943.28;4884090;28;104934;-90
2022/03/31 08:38:57;;;;;;;;;1.00;1.00;;;;;15.86;36.04;96936.19;4909215;28;101797;-90
2022/03/31 08:41:25;;;;;;;;;1.00;1.00;;;;;15.88;36.30;96938.66;4901142;28;101914;-89
2022/03/31 08:43:52;;;;;;;;;1.00;0.50;;;;;15.87;36.25;96945.19;4880916;28;102190;-90
2022/03/31 08:46:20;;;;;;;;;1.50;1.25;;;;;15.86;35.97;96943.56;4899414;28;104122;-90
2022/03/31 08:48:47;;;;;;;;;1.00;1.00;;;;;15.86;36.25;96943.56;4884542;28;102121;-90
2022/03/31 08:51:14;;;;;;;;;1.00;1.00;;;;;15.86;36.17;96944.38;4894178;28;102171;-90
2022/03/31 08:53:41;;;;;;;;;1.00;1.00;;;;;15.84;35.77;96935.69;4898378;28;102203;-90
2022/03/31 08:56:09;;;;;;;;;2.00;2.00;;;;;15.84;35.88;96932.94;4899448;28;103423;-90
2022/03/31 08:58:36;;;;;;;;;1.00;1.00;;;;;15.85;35.90;96937.28;4879175;28;102258;-90
2022/03/31 09:01:03;;;;;;;;;1.50;1.00;;;;;15.85;36.27;96940.00;4909783;28;101785;-90
2022/03/31 09:03:37;;;;;;;;;1.00;1.00;;;;;15.85;35.90;96933.78;4898028;28;102133;-90
2022/03/31 09:06:04;;;;;;;;;1.00;1.00;;;;;15.83;36.27;96928.59;4899561;28;103317;-90
2022/03/31 09:08:31;;;;;;;;;0.50;0.50;;;;;15.86;36.01;96930.75;4902747;28;102330;-90
2022/03/31 09:11:00;;;;;;;;;1.00;1.00;;;;;15.85;35.86;96940.00;4899041;28;102378;-90
2022/03/31 09:13:34;;;;;;;;;3.00;2.00;;;;;15.85;35.98;96940.00;4911636;28;101712;-90
2022/03/31 09:16:06;;;;;;;;;1.00;1.00;;;;;15.86;36.03;96947.09;4918058;28;108059;-91
2022/03/31 09:18:34;;;;;;;;;1.50;1.00;;;;;15.84;36.05;96943.84;4913956;28;102131;-90
2022/03/31 09:21:03;;;;;;;;;1.00;1.00;;;;;15.85;36.06;96945.47;4899884;28;102446;-90
2022/03/31 09:23:41;;;;;;;;;1.75;1.75;;;;;15.84;36.05;96941.13;4892816;28;101936;-90
2022/03/31 09:26:12;;;;;;;;;2.00;2.00;;;;;15.84;36.03;96945.75;4893506;28;103554;-90
2022/03/31 09:28:44;;;;;;;;;1.00;1.00;;;;;15.84;36.13;96948.47;4877959;28;103654;-91
2022/03/31 09:31:12;;;;;;;;;1.00;1.00;;;;;15.83;36.14;96947.66;4910797;28;102298;-90
2022/03/31 09:33:44;;;;;;;;;1.00;1.00;;;;;15.83;35.98;96950.38;4892005;28;102179;-90
2022/03/31 09:36:22;;;;;;;;;1.00;1.00;;;;;15.83;36.07;96955.03;4889137;28;103475;-90
2022/03/31 09:38:58;;;;;;;;;1.00;1.00;;;;;15.84;35.99;96953.94;4906009;28;102015;-90
2022/03/31 09:41:27;;;;;;;;;2.50;1.50;;;;;15.83;35.90;96957.75;4910767;28;101724;-90
2022/03/31 09:43:56;;;;;;;;;2.00;2.00;;;;;15.83;36.56;96961.28;4905170;28;102098;-90
2022/03/31 09:46:28;;;;;;;;;1.00;1.00;;;;;15.83;36.07;96964.00;4897783;28;103645;-90
2022/03/31 09:49:09;;;;;;;;;1.00;1.00;;;;;15.84;36.05;96957.47;4894153;28;102290;-90
2022/03/31 09:51:36;;;;;;;;;1.00;1.00;;;;;15.83;36.11;96955.03;4885597;28;101747;-90
2022/03/31 09:54:04;;;;;;;;;2.00;2.00;;;;;15.84;36.22;96954.75;4909493;28;101776;-90
2022/03/31 09:56:33;;;;;;;;;2.00;2.00;;;;;15.83;35.98;96947.66;4920732;28;103571;-90
2022/03/31 09:59:02;;;;;;;;;1.00;1.00;;;;;15.82;36.65;96940.56;4908287;28;102291;-90
2022/03/31 10:01:30;;;;;;;;;2.50;2.00;;;;;15.83;36.01;96942.22;4894351;28;101709;-90
2022/03/31 10:03:57;;;;;;;;;2.00;2.00;;;;;15.82;36.28;96934.28;4908163;28;102254;-90
2022/03/31 10:06:25;;;;;;;;;0.75;0.75;;;;;15.81;36.38;96932.66;4914751;28;108680;-90
2022/03/31 10:08:52;;;;;;;;;2.25;2.00;;;;;15.80;36.13;96931.03;4914735;28;102086;-90
2022/03/31 10:11:20;;;;;;;;;2.50;1.75;;;;;15.79;36.21;96930.22;4919101;28;101997;-90
2022/03/31 10:14:12;;;;;;;;;3.00;1.25;;;;;15.79;36.12;96930.22;4892375;28;102242;-90
2022/03/31 10:16:50;;;;;;;;;2.25;1.00;;;;;15.79;36.34;96930.22;4879014;28;107989;-90
2022/03/31 10:19:28;;;;;;;;;1.75;1.00;;;;;15.78;36.09;96928.59;4878931;28;102054;-90
2022/03/31 10:21:57;;;;;;;;;2.25;2.00;;;;;15.78;36.27;96920.41;4919147;28;102278;-90
2022/03/31 10:27:35;;;;;;;;;2.00;2.00;;;;;15.79;35.91;96918.50;4879203;28;108103;-90
2022/03/31 10:30:18;;;;;;;;;2.00;2.00;;;;;15.81;36.25;96916.31;4904837;28;102181;-90
2022/03/31 10:33:01;;;;;;;;;2.00;2.00;;;;;15.79;36.04;96916.59;4890479;28;101721;-90
2022/03/31 10:35:35;;;;;;;;;2.25;2.00;;;;;15.79;36.03;96913.06;4900849;28;102004;-90
2022/03/31 10:38:16;;;;;;;;;4.00;3.00;;;;;15.79;36.11;96916.59;4885758;28;108301;-90
2022/03/31 10:40:50;;;;;;;;;2.00;2.00;;;;;15.78;36.11;96920.41;4889285;28;102150;-90
2022/03/31 10:43:27;;;;;;;;;2.25;2.00;;;;;15.78;35.99;96916.88;4871736;28;102320;-90
2022/03/31 10:45:56;;;;;;;;;1.00;1.00;;;;;15.77;36.16;96926.94;4888847;28;102405;-91
2022/03/31 10:48:28;;;;;;;;;2.00;2.00;;;;;15.76;36.07;96928.03;4898026;28;103211;-90
2022/03/31 10:51:06;;;;;;;;;2.00;2.00;;;;;15.77;36.10;96921.50;4908497;28;102228;-90
2022/03/31 10:53:35;;;;;;;;;3.00;2.00;;;;;15.76;35.96;96911.69;4881664;28;102595;-90
2022/03/31 10:56:03;;;;;;;;;3.25;2.00;;;;;15.76;36.09;96919.84;4873904;28;102193;-90
2022/03/31 10:58:32;;;;;;;;;2.00;2.00;;;;;15.76;36.19;96933.47;4883883;28;103964;-90
2022/03/31 11:01:03;;;;;;;;;2.00;2.00;;;;;15.75;35.80;96923.69;4913653;28;101637;-90
2022/03/31 11:03:30;;;;;;;;;2.00;2.00;;;;;15.75;35.99;96922.88;4891336;28;102095;-90
2022/03/31 11:06:01;;;;;;;;;2.00;1.00;;;;;15.76;36.19;96930.75;4888438;28;102056;-91
2022/03/31 11:08:29;;;;;;;;;1.50;1.50;;;;;15.77;36.15;96923.41;4877449;28;107613;-90
2022/03/31 11:10:57;;;;;;;;;3.00;3.00;;;;;15.76;35.84;96928.03;4911699;28;102078;-90
2022/03/31 11:13:32;;;;;;;;;3.50;2.00;;;;;15.76;36.23;96925.31;4909897;28;102173;-90
2022/03/31 11:15:59;;;;;;;;;3.00;2.00;;;;;15.75;36.25;96923.69;4884719;28;102200;-90
2022/03/31 11:18:26;;;;;;;;;2.25;2.00;;;;;15.75;36.35;96923.69;4897263;28;108635;-90
2022/03/31 11:21:00;;;;;;;;;2.00;2.00;;;;;15.75;35.89;96926.41;4899989;28;101760;-90
2022/03/31 11:23:29;;;;;;;;;2.00;2.00;;;;;15.73;36.07;96928.59;4904781;28;101799;-90
2022/03/31 11:25:57;;;;;;;;;2.75;2.75;;;;;15.73;36.17;96936.75;4878005;28;102325;-90
2022/03/31 11:28:28;;;;;;;;;1.00;1.00;;;;;15.73;35.84;96919.59;4901821;28;103480;-90
2022/03/31 11:30:55;;;;;;;;;1.50;1.50;;;;;15.71;36.11;96925.34;4898680;28;101863;-90
2022/03/31 11:33:22;;;;;;;;;2.00;2.00;;;;;15.71;36.01;96928.06;4869548;28;102468;-90
2022/03/31 11:35:52;;;;;;;;;2.25;2.00;;;;;15.70;36.13;96920.97;4886768;28;102368;-90